createdAt,value
2022-11-02T00:00:39.859Z,75.34
2022-11-02T00:03:08.414Z,75.04
2022-11-02T00:05:36.590Z,74.51
2022-11-02T00:08:05.084Z,74.84
2022-11-02T00:10:33.177Z,74.69
2022-11-02T00:13:01.039Z,75.09
2022-11-02T00:15:32.465Z,76.02
2022-11-02T00:18:05.859Z,75.78
2022-11-02T00:20:36.497Z,74.76
2022-11-02T00:23:07.925Z,74.39
2022-11-02T00:25:41.258Z,74.51
2022-11-02T00:28:09.578Z,75.19
2022-11-02T00:30:38.194Z,75.28
2022-11-02T00:33:06.116Z,75.77
2022-11-02T00:35:35.578Z,75.78
2022-11-02T00:38:05.231Z,75.85
2022-11-02T00:40:33.255Z,75.48
2022-11-02T00:43:01.447Z,75.19
2022-11-02T00:45:29.057Z,75.02
2022-11-02T00:47:56.879Z,74.25
2022-11-02T00:50:25.155Z,74.55
2022-11-02T00:52:52.851Z,75.99
2022-11-02T00:55:21.406Z,75.49
2022-11-02T00:57:49.547Z,75.43
2022-11-02T01:00:17.396Z,75.19
2022-11-02T01:02:45.387Z,75.49
2022-11-02T01:05:13.617Z,75.41
2022-11-02T01:07:41.483Z,75.83
2022-11-02T01:10:11.008Z,76.13
2022-11-02T01:12:40.884Z,75.67
2022-11-02T01:15:10.819Z,76.10
2022-11-02T01:17:39.189Z,76.51
2022-11-02T01:20:08.144Z,75.98
2022-11-02T01:22:35.990Z,75.08
2022-11-02T01:25:04.862Z,75.00
2022-11-02T01:27:32.571Z,75.47
2022-11-02T01:30:00.386Z,74.87
2022-11-02T01:32:31.359Z,74.66
2022-11-02T01:34:59.125Z,74.63
2022-11-02T01:37:26.844Z,74.96
2022-11-02T01:39:54.817Z,75.27
2022-11-02T01:42:25.238Z,75.36
2022-11-02T01:44:52.946Z,75.14
2022-11-02T01:47:33.035Z,73.86
2022-11-02T01:50:09.915Z,73.50
2022-11-02T01:52:39.338Z,72.31
2022-11-02T01:55:23.130Z,74.71
2022-11-02T01:58:03.064Z,75.59
2022-11-02T02:00:31.429Z,74.92
2022-11-02T02:03:10.510Z,74.43
2022-11-02T02:05:45.562Z,76.18
2022-11-02T02:08:20.192Z,75.85
2022-11-02T02:10:47.834Z,75.68
2022-11-02T02:13:17.174Z,75.61
2022-11-02T02:16:01.703Z,74.46
2022-11-02T02:18:57.509Z,74.73
2022-11-02T02:21:37.367Z,74.88
2022-11-02T02:24:28.154Z,75.10
2022-11-02T02:27:09.574Z,75.05
2022-11-02T02:29:56.360Z,74.94
2022-11-02T02:32:29.825Z,74.88
2022-11-02T02:35:46.022Z,75.59
2022-11-02T02:38:30.227Z,75.37
2022-11-02T02:41:15.875Z,74.80
2022-11-02T02:43:50.066Z,74.43
2022-11-02T02:46:42.747Z,74.65
2022-11-02T02:49:16.017Z,74.51
2022-11-02T02:51:45.998Z,74.90
2022-11-02T02:54:21.340Z,75.48
2022-11-02T02:56:57.288Z,74.14
2022-11-02T02:59:32.013Z,74.01
2022-11-02T03:02:00.400Z,74.44
2022-11-02T03:04:28.162Z,74.74
2022-11-02T03:07:00.150Z,74.90
2022-11-02T03:09:34.432Z,74.95
2022-11-02T03:12:41.762Z,74.79
2022-11-02T03:15:28.651Z,73.75
2022-11-02T03:18:08.900Z,74.10
2022-11-02T03:21:26.637Z,74.37
2022-11-02T03:24:34.068Z,73.90
2022-11-02T03:27:20.207Z,73.27
2022-11-02T03:30:02.953Z,73.44
2022-11-02T03:32:41.335Z,73.60
2022-11-02T03:35:47.093Z,73.58
2022-11-02T03:38:24.546Z,73.38
2022-11-02T03:40:56.984Z,74.27
2022-11-02T03:43:26.880Z,73.89
2022-11-02T03:45:57.660Z,74.12
2022-11-02T03:48:29.354Z,73.79
2022-11-02T03:51:03.021Z,73.71
2022-11-02T03:53:59.894Z,73.60
2022-11-02T03:56:35.663Z,74.54
2022-11-02T03:59:04.243Z,73.68
2022-11-02T04:01:39.373Z,73.48
2022-11-02T04:04:07.689Z,73.48
2022-11-02T04:06:36.692Z,73.43
2022-11-02T04:09:05.671Z,73.68
2022-11-02T04:11:52.199Z,73.22
2022-11-02T04:14:38.217Z,73.14
2022-11-02T04:17:27.132Z,73.21
2022-11-02T04:19:57.082Z,73.23
2022-11-02T04:22:44.812Z,72.98
2022-11-02T04:25:18.395Z,72.83
2022-11-02T04:27:52.068Z,72.94
2022-11-02T04:30:23.787Z,73.49
2022-11-02T04:33:11.146Z,73.05
2022-11-02T04:35:39.548Z,72.37
2022-11-02T04:38:26.772Z,72.80
2022-11-02T04:41:14.886Z,72.73
2022-11-02T04:43:44.557Z,73.87
2022-11-02T04:46:14.043Z,73.47
2022-11-02T04:48:42.030Z,73.10
2022-11-02T04:51:10.719Z,73.47
2022-11-02T04:53:38.877Z,73.88
2022-11-02T04:56:07.490Z,73.49
2022-11-02T04:58:35.940Z,73.75
2022-11-02T05:01:11.501Z,73.16
2022-11-02T05:03:39.940Z,72.90
2022-11-02T05:06:10.840Z,73.25
2022-11-02T05:08:39.410Z,73.31
2022-11-02T05:11:09.598Z,73.49
2022-11-02T05:13:39.444Z,74.05
2022-11-02T05:16:11.698Z,72.99
2022-11-02T05:18:39.792Z,72.91
2022-11-02T05:21:10.358Z,73.04
2022-11-02T05:23:38.900Z,72.71
2022-11-02T05:26:10.762Z,71.83
2022-11-02T05:28:39.432Z,72.49
2022-11-02T05:31:08.092Z,72.80
2022-11-02T05:33:36.161Z,72.72
2022-11-02T05:36:06.488Z,72.89
2022-11-02T05:38:35.405Z,71.66
2022-11-02T05:41:03.259Z,72.04
2022-11-02T05:43:31.674Z,71.30
2022-11-02T05:46:02.160Z,70.05
2022-11-02T05:48:32.730Z,70.69
2022-11-02T05:51:03.278Z,71.28
2022-11-02T05:53:32.618Z,73.14
2022-11-02T05:56:02.339Z,72.89
2022-11-02T05:58:30.950Z,72.43
2022-11-02T06:01:00.740Z,72.55
2022-11-02T06:03:29.568Z,72.50
2022-11-02T06:05:58.754Z,72.35
2022-11-02T06:08:26.895Z,72.47
2022-11-02T06:11:15.752Z,72.41
2022-11-02T06:13:43.629Z,72.55
2022-11-02T06:16:20.119Z,72.76
2022-11-02T06:18:51.172Z,71.88
2022-11-02T06:21:19.208Z,71.67
2022-11-02T06:23:48.414Z,71.85
2022-11-02T06:26:16.406Z,72.10
2022-11-02T06:28:44.703Z,70.65
2022-11-02T06:31:13.744Z,70.82
2022-11-02T06:33:42.201Z,71.19
2022-11-02T06:36:10.745Z,71.65
2022-11-02T06:38:38.844Z,71.57
2022-11-02T06:41:06.911Z,71.02
2022-11-02T06:43:38.135Z,71.37
2022-11-02T06:46:06.498Z,71.24
2022-11-02T06:48:35.485Z,70.27
2022-11-02T06:51:05.329Z,70.79
2022-11-02T06:53:33.690Z,70.93
2022-11-02T06:56:01.460Z,71.09
2022-11-02T06:58:29.873Z,71.21
2022-11-02T07:01:00.033Z,71.36
2022-11-02T07:03:28.566Z,70.68
2022-11-02T07:05:56.918Z,70.16
2022-11-02T07:08:24.801Z,69.46
2022-11-02T07:10:58.179Z,70.11
2022-11-02T07:13:26.334Z,70.74
2022-11-02T07:15:55.333Z,71.14
2022-11-02T07:18:23.533Z,70.79
2022-11-02T07:20:51.789Z,70.66
2022-11-02T07:23:23.664Z,70.62
2022-11-02T07:25:51.654Z,72.08
2022-11-02T07:28:19.415Z,71.35
2022-11-02T07:30:47.428Z,70.87
2022-11-02T07:33:15.362Z,71.21
2022-11-02T07:35:42.936Z,71.88
2022-11-02T07:38:11.095Z,70.81
2022-11-02T07:40:39.185Z,70.85
2022-11-02T07:43:07.494Z,71.63
2022-11-02T07:45:36.177Z,70.45
2022-11-02T07:48:04.381Z,70.74
2022-11-02T07:50:32.088Z,70.48
2022-11-02T07:53:00.718Z,69.41
2022-11-02T07:55:30.694Z,68.84
2022-11-02T07:58:00.499Z,68.25
2022-11-02T08:00:31.368Z,69.42
2022-11-02T08:03:02.156Z,69.39
2022-11-02T08:05:49.949Z,68.86
2022-11-02T08:08:37.874Z,69.38
2022-11-02T08:11:07.726Z,68.89
2022-11-02T08:13:37.585Z,69.78
2022-11-02T08:16:05.839Z,70.49
2022-11-02T08:18:33.710Z,69.85
2022-11-02T08:21:02.154Z,70.62
2022-11-02T08:26:38.713Z,71.61
2022-11-02T08:29:09.043Z,70.12
2022-11-02T08:31:57.623Z,69.79
2022-11-02T08:34:45.366Z,69.44
2022-11-02T08:37:35.309Z,69.04
2022-11-02T08:40:23.267Z,68.87
2022-11-02T08:42:59.575Z,69.39
2022-11-02T08:45:32.348Z,68.58
2022-11-02T08:48:07.818Z,68.94
2022-11-02T08:50:36.412Z,68.39
2022-11-02T08:53:04.925Z,68.59
2022-11-02T08:55:33.241Z,67.72
2022-11-02T09:01:21.641Z,67.30
2022-11-02T09:03:49.948Z,66.78
2022-11-02T09:06:17.899Z,66.32
2022-11-02T09:08:45.837Z,66.35
2022-11-02T09:11:14.475Z,66.55
2022-11-02T09:13:42.726Z,66.59
2022-11-02T09:16:10.629Z,66.34
2022-11-02T09:18:39.213Z,65.58
2022-11-02T09:21:07.095Z,66.14
2022-11-02T09:23:34.875Z,65.83
2022-11-02T09:26:02.777Z,64.90
2022-11-02T09:28:34.172Z,65.94
2022-11-02T09:31:02.999Z,65.83
2022-11-02T09:33:34.312Z,65.78
2022-11-02T09:36:04.606Z,64.78
2022-11-02T09:38:33.109Z,64.98
2022-11-02T09:41:18.439Z,64.91
2022-11-02T09:43:58.170Z,65.74
2022-11-02T09:46:30.313Z,64.14
2022-11-02T09:49:06.484Z,63.85
2022-11-02T09:51:40.564Z,64.04
2022-11-02T09:54:18.672Z,63.77
2022-11-02T09:56:49.256Z,64.11
2022-11-02T09:59:19.165Z,64.42
2022-11-02T10:02:16.144Z,64.30
2022-11-02T10:04:56.016Z,64.23
2022-11-02T10:07:44.933Z,64.56
2022-11-02T10:10:39.729Z,64.42
2022-11-02T10:13:16.095Z,64.46
2022-11-02T10:15:44.066Z,63.24
2022-11-02T10:18:20.793Z,64.76
2022-11-02T10:21:05.440Z,64.63
2022-11-02T10:23:54.572Z,63.83
2022-11-02T10:26:33.074Z,63.62
2022-11-02T10:29:09.672Z,64.15
2022-11-02T10:31:37.781Z,63.73
2022-11-02T10:34:21.030Z,63.40
2022-11-02T10:37:14.339Z,63.09
2022-11-02T10:39:44.762Z,62.67
2022-11-02T10:42:47.210Z,62.43
2022-11-02T10:45:23.421Z,62.57
2022-11-02T10:48:06.501Z,63.61
2022-11-02T10:51:07.742Z,63.24
2022-11-02T10:53:48.131Z,63.85
2022-11-02T10:56:21.725Z,63.64
2022-11-02T10:59:24.695Z,63.50
2022-11-02T11:02:04.618Z,63.81
2022-11-02T11:04:34.234Z,63.14
2022-11-02T11:07:28.082Z,63.40
2022-11-02T11:09:57.378Z,63.08
2022-11-02T11:12:34.361Z,63.22
2022-11-02T11:15:47.870Z,63.13
2022-11-02T11:21:08.366Z,61.83
2022-11-02T11:23:36.838Z,62.12
2022-11-02T11:26:06.928Z,62.07
2022-11-02T11:28:54.836Z,61.59
2022-11-02T11:31:23.418Z,61.99
2022-11-02T11:34:00.288Z,62.27
2022-11-02T11:36:36.179Z,62.03
2022-11-02T11:39:21.440Z,61.35
2022-11-02T11:41:49.181Z,60.91
2022-11-02T11:44:17.673Z,60.21
2022-11-02T11:46:49.388Z,60.46
2022-11-02T11:50:07.615Z,61.22
2022-11-02T11:52:23.519Z,62.66
2022-11-02T11:54:56.949Z,61.82
2022-11-02T11:57:29.469Z,60.79
2022-11-02T12:00:01.581Z,60.96
2022-11-02T12:02:42.801Z,61.19
2022-11-02T12:05:20.892Z,61.19
2022-11-02T12:08:13.239Z,60.89
2022-11-02T12:11:19.205Z,61.49
2022-11-02T12:13:56.063Z,61.20
2022-11-02T12:16:51.318Z,62.75
2022-11-02T12:19:23.255Z,63.03
2022-11-02T12:22:06.094Z,62.34
2022-11-02T12:24:56.972Z,61.93
2022-11-02T12:27:37.132Z,61.17
2022-11-02T12:30:16.845Z,61.15
2022-11-02T12:33:17.357Z,62.17
2022-11-02T12:36:07.131Z,62.22
2022-11-02T12:39:03.417Z,61.79
2022-11-02T12:42:11.082Z,61.85
2022-11-02T12:44:58.501Z,61.08
2022-11-02T12:47:40.489Z,61.75
2022-11-02T12:50:11.467Z,62.90
2022-11-02T12:53:34.750Z,62.67
2022-11-02T12:56:06.787Z,63.08
2022-11-02T12:58:38.758Z,63.54
2022-11-02T13:01:17.919Z,62.85
2022-11-02T13:04:00.937Z,63.21
2022-11-02T13:06:37.101Z,63.75
2022-11-02T13:09:13.228Z,64.08
2022-11-02T13:11:44.712Z,63.21
2022-11-02T13:14:17.811Z,63.70
2022-11-02T13:17:09.756Z,63.77
2022-11-02T13:19:54.440Z,63.79
2022-11-02T13:22:28.854Z,63.55
2022-11-02T13:25:05.134Z,64.99
2022-11-02T13:27:39.082Z,64.87
2022-11-02T13:30:16.542Z,64.77
2022-11-02T13:33:03.790Z,64.11
2022-11-02T13:35:43.293Z,63.55
2022-11-02T13:38:39.426Z,64.19
2022-11-02T13:41:26.941Z,64.46
2022-11-02T13:44:25.695Z,64.78
2022-11-02T13:47:05.407Z,64.96
2022-11-02T13:49:39.776Z,64.93
2022-11-02T13:52:15.117Z,65.15
2022-11-02T13:54:48.853Z,64.94
2022-11-02T13:57:32.295Z,64.48
2022-11-02T14:00:03.018Z,64.91
2022-11-02T14:02:37.039Z,64.72
2022-11-02T14:05:05.454Z,64.55
2022-11-02T14:07:38.605Z,65.21
2022-11-02T14:10:17.159Z,65.76
2022-11-02T14:12:51.181Z,65.89
2022-11-02T14:15:19.140Z,65.36
2022-11-02T14:18:03.048Z,65.65
2022-11-02T14:20:35.816Z,65.54
2022-11-02T14:23:09.842Z,66.08
2022-11-02T14:25:53.145Z,65.62
2022-11-02T14:28:26.554Z,65.60
2022-11-02T14:34:55.604Z,65.67
2022-11-02T14:37:38.668Z,66.38
2022-11-02T14:40:32.005Z,65.93
2022-11-02T14:43:03.259Z,65.89
2022-11-02T14:46:13.305Z,65.96
2022-11-02T14:48:57.799Z,66.45
2022-11-02T14:51:38.424Z,65.81
2022-11-02T14:54:18.849Z,66.30
2022-11-02T14:56:50.807Z,68.25
2022-11-02T14:59:44.555Z,67.69
2022-11-02T15:02:12.109Z,68.18
2022-11-02T15:04:55.105Z,67.76
2022-11-02T15:07:46.697Z,67.67
2022-11-02T15:10:17.040Z,67.35
2022-11-02T15:12:46.613Z,66.96
2022-11-02T15:15:36.628Z,67.52
2022-11-02T15:18:20.106Z,66.67
2022-11-02T15:21:10.941Z,67.47
2022-11-02T15:24:04.359Z,68.45
2022-11-02T15:26:48.521Z,67.30
2022-11-02T15:29:26.796Z,68.59
2022-11-02T15:31:58.998Z,69.65
2022-11-02T15:34:37.462Z,69.87
2022-11-02T15:37:07.500Z,68.39
2022-11-02T15:39:36.525Z,70.45
2022-11-02T15:42:16.225Z,70.41
2022-11-02T15:45:26.671Z,70.93
2022-11-02T15:48:31.322Z,70.31
2022-11-02T15:51:50.160Z,69.04
2022-11-02T15:54:45.882Z,69.45
2022-11-02T15:58:03.487Z,69.44
2022-11-02T16:00:31.530Z,69.36
2022-11-02T16:03:10.665Z,69.16
2022-11-02T16:05:45.718Z,68.58
2022-11-02T16:08:33.240Z,70.80
2022-11-02T16:11:20.265Z,69.10
2022-11-02T16:16:59.815Z,68.78
2022-11-02T16:19:29.403Z,69.56
2022-11-02T16:22:01.286Z,69.68
2022-11-02T16:24:49.947Z,72.26
2022-11-02T16:27:22.445Z,70.71
2022-11-02T16:30:22.371Z,71.25
2022-11-02T16:32:59.680Z,70.91
2022-11-02T16:35:48.021Z,70.52
2022-11-02T16:38:18.735Z,68.81
2022-11-02T16:40:46.787Z,68.29
2022-11-02T16:43:15.161Z,69.18
2022-11-02T16:46:04.785Z,69.36
2022-11-02T16:49:13.208Z,69.18
2022-11-02T16:51:49.252Z,71.43
2022-11-02T16:54:37.025Z,72.37
2022-11-02T16:57:12.132Z,70.65
2022-11-02T16:59:49.923Z,72.00
2022-11-02T17:02:19.066Z,72.22
2022-11-02T17:04:48.807Z,71.04
2022-11-02T17:07:32.069Z,71.77
2022-11-02T17:10:03.446Z,72.95
2022-11-02T17:12:35.303Z,71.52
2022-11-02T17:15:21.301Z,70.19
2022-11-02T17:17:49.381Z,71.22
2022-11-02T17:20:24.194Z,71.33
2022-11-02T17:23:01.137Z,70.65
2022-11-02T17:25:49.096Z,71.60
2022-11-02T17:28:35.360Z,70.69
2022-11-02T17:31:03.410Z,71.08
2022-11-02T17:33:32.856Z,71.88
2022-11-02T17:36:07.557Z,70.96
2022-11-02T17:38:36.372Z,70.79
2022-11-02T17:41:24.209Z,69.69
2022-11-02T17:43:52.813Z,69.97
2022-11-02T17:46:21.659Z,70.36
2022-11-02T17:48:50.440Z,70.49
2022-11-02T17:51:22.470Z,71.31
2022-11-02T17:53:50.914Z,72.71
2022-11-02T17:56:42.095Z,72.58
2022-11-02T17:59:12.442Z,73.45
2022-11-02T18:01:42.972Z,73.95
2022-11-02T18:04:53.712Z,72.62
2022-11-02T18:07:51.263Z,72.05
2022-11-02T18:10:42.839Z,72.22
2022-11-02T18:13:20.274Z,71.91
2022-11-02T18:15:49.262Z,73.14
2022-11-02T18:18:20.578Z,73.26
2022-11-02T18:20:50.283Z,74.21
2022-11-02T18:23:20.008Z,73.69
2022-11-02T18:25:48.542Z,73.10
2022-11-02T18:28:17.865Z,73.16
2022-11-02T18:30:47.212Z,73.47
2022-11-02T18:33:15.605Z,74.72
2022-11-02T18:35:44.217Z,73.02
2022-11-02T18:38:12.489Z,73.41
2022-11-02T18:40:40.902Z,75.05
2022-11-02T18:43:09.452Z,73.88
2022-11-02T18:45:37.525Z,74.12
2022-11-02T18:48:06.571Z,72.85
2022-11-02T18:50:35.111Z,72.14
2022-11-02T18:53:03.903Z,71.77
2022-11-02T18:55:39.978Z,72.32
2022-11-02T18:58:10.375Z,72.79
2022-11-02T19:00:38.611Z,74.31
2022-11-02T19:03:07.291Z,73.92
2022-11-02T19:05:53.761Z,74.14
2022-11-02T19:08:40.606Z,76.14
2022-11-02T19:11:09.173Z,75.44
2022-11-02T19:13:37.467Z,76.74
2022-11-02T19:16:05.861Z,74.86
2022-11-02T19:18:34.443Z,74.91
2022-11-02T19:21:02.569Z,76.04
2022-11-02T19:23:30.669Z,74.33
2022-11-02T19:25:58.343Z,76.54
2022-11-02T19:28:26.591Z,76.65
2022-11-02T19:30:54.457Z,76.41
2022-11-02T19:33:22.940Z,77.73
2022-11-02T19:35:58.449Z,77.88
2022-11-02T19:38:26.677Z,78.73
2022-11-02T19:41:02.905Z,78.17
2022-11-02T19:43:31.552Z,77.71
2022-11-02T19:46:02.799Z,77.55
2022-11-02T19:48:32.336Z,78.56
2022-11-02T19:51:19.143Z,81.48
2022-11-02T19:53:51.298Z,82.49
2022-11-02T19:56:20.368Z,79.58
2022-11-02T19:58:51.113Z,79.53
2022-11-02T20:01:42.492Z,80.60
2022-11-02T20:04:10.955Z,81.66
2022-11-02T20:06:40.838Z,82.65
2022-11-02T20:09:14.740Z,81.12
2022-11-02T20:11:45.322Z,80.60
2022-11-02T20:14:14.933Z,80.70
2022-11-02T20:16:44.887Z,79.91
2022-11-02T20:19:12.997Z,80.18
2022-11-02T20:21:43.174Z,84.27
2022-11-02T20:24:11.937Z,82.39
2022-11-02T20:26:43.652Z,84.56
2022-11-02T20:29:15.414Z,82.28
2022-11-02T20:31:46.066Z,81.69
2022-11-02T20:34:14.266Z,81.97
2022-11-02T20:36:42.059Z,83.70
2022-11-02T20:39:11.113Z,81.51
2022-11-02T20:41:40.350Z,82.10
2022-11-02T20:44:08.167Z,84.30
2022-11-02T20:46:40.946Z,84.38
2022-11-02T20:51:58.432Z,81.77
2022-11-02T20:54:29.628Z,81.15
2022-11-02T20:56:57.838Z,80.00
2022-11-02T20:59:27.280Z,79.53
2022-11-02T21:01:55.027Z,81.85
2022-11-02T21:04:23.096Z,80.70
2022-11-02T21:06:51.666Z,79.46
2022-11-02T21:09:21.766Z,79.16
2022-11-02T21:12:08.338Z,80.82
2022-11-02T21:14:37.026Z,81.19
2022-11-02T21:17:05.787Z,79.51
2022-11-02T21:19:33.467Z,78.97
2022-11-02T21:22:02.739Z,82.60
2022-11-02T21:24:30.784Z,80.88
2022-11-02T21:26:58.672Z,78.68
2022-11-02T21:29:27.092Z,80.00
2022-11-02T21:31:54.842Z,81.90
2022-11-02T21:34:22.615Z,79.45
2022-11-02T21:36:50.714Z,79.84
2022-11-02T21:39:18.570Z,80.14
2022-11-02T21:41:46.398Z,82.75
2022-11-02T21:44:15.151Z,84.59
2022-11-02T21:46:42.989Z,85.18
2022-11-02T21:49:10.776Z,85.48
2022-11-02T21:51:38.922Z,82.95
2022-11-02T21:54:06.713Z,82.30
2022-11-02T21:56:36.123Z,80.52
2022-11-02T21:59:09.554Z,81.42
2022-11-02T22:01:48.310Z,79.00
2022-11-02T22:04:25.630Z,78.17
2022-11-02T22:06:53.737Z,77.96
2022-11-02T22:09:22.234Z,77.58
2022-11-02T22:12:10.207Z,77.34
2022-11-02T22:14:39.088Z,77.69
2022-11-02T22:17:16.311Z,79.18
2022-11-02T22:19:56.043Z,77.44
2022-11-02T22:22:23.998Z,76.98
2022-11-02T22:24:52.008Z,77.54
2022-11-02T22:27:20.736Z,78.82
2022-11-02T22:29:48.688Z,78.06
2022-11-02T22:32:16.524Z,77.81
2022-11-02T22:34:45.250Z,77.50
2022-11-02T22:37:31.892Z,78.51
2022-11-02T22:40:00.561Z,79.76
2022-11-02T22:42:28.126Z,80.69
2022-11-02T22:44:58.668Z,81.62
2022-11-02T22:47:26.721Z,79.25
2022-11-02T22:49:54.513Z,79.05
2022-11-02T22:52:22.259Z,78.97
2022-11-02T22:54:50.519Z,78.99
2022-11-02T22:57:18.750Z,78.47
2022-11-02T22:59:47.687Z,78.70
2022-11-02T23:02:16.003Z,81.62
2022-11-02T23:04:43.626Z,82.15
2022-11-02T23:07:11.389Z,80.67
2022-11-02T23:09:39.801Z,81.82
2022-11-02T23:12:07.599Z,80.71
2022-11-02T23:14:35.344Z,80.66
2022-11-02T23:17:03.640Z,80.87
2022-11-02T23:19:33.051Z,81.45
2022-11-02T23:22:27.791Z,81.61
2022-11-02T23:25:12.174Z,81.92
2022-11-02T23:27:58.911Z,82.32
2022-11-02T23:30:48.290Z,82.19
2022-11-02T23:33:16.291Z,82.48
2022-11-02T23:36:03.050Z,84.34
2022-11-02T23:38:49.866Z,82.77
2022-11-02T23:41:19.226Z,82.22
2022-11-02T23:43:48.489Z,83.61
2022-11-02T23:46:17.574Z,83.99
2022-11-02T23:48:48.233Z,83.61
2022-11-02T23:51:37.604Z,86.05
2022-11-02T23:54:24.712Z,85.13
2022-11-02T23:56:52.822Z,84.95
2022-11-02T23:59:21.715Z,86.12
